Time,TemperatureF,DewpointF,PressureIn,WindDirection,WindDirectionDegrees,WindSpeedMPH,WindSpeedGustMPH,Humidity,HourlyPrecipIn,Conditions,Clouds,dailyrainin,SoftwareType,DateUTC
2013-01-10 00:04:00,52.2,51.7,30.00,WNW,283,0.0,0.0,98,0.00,,,0.00,LWC V2.11 B50,2013-01-10 06:04:00,
2013-01-10 00:09:00,51.9,51.1,30.01,WNW,283,0.0,0.0,97,0.00,,,0.00,LWC V2.11 B50,2013-01-10 06:09:00,
2013-01-10 00:14:00,51.7,50.9,30.00,WNW,283,0.0,0.0,97,0.00,,,0.00,LWC V2.11 B50,2013-01-10 06:14:00,
2013-01-10 00:19:00,51.5,50.7,30.00,WNW,283,0.0,0.0,97,0.00,,,0.00,LWC V2.11 B50,2013-01-10 06:19:00,
2013-01-10 00:24:00,51.2,50.4,30.00,WNW,283,0.0,0.0,97,0.00,,,0.00,LWC V2.11 B50,2013-01-10 06:24:00,
2013-01-10 00:30:00,50.9,50.1,30.00,WNW,283,0.0,0.0,97,0.00,,,0.00,LWC V2.11 B50,2013-01-10 06:30:00,
2013-01-10 00:35:00,50.6,49.8,30.00,WNW,283,0.0,0.0,97,0.00,,,0.00,LWC V2.11 B50,2013-01-10 06:35:00,
2013-01-10 00:40:00,50.5,49.7,30.01,WNW,283,0.0,0.0,97,0.00,,,0.00,LWC V2.11 B50,2013-01-10 06:40:00,
2013-01-10 00:45:00,50.7,50.2,30.01,West,271,0.0,1.0,98,0.00,,,0.00,LWC V2.11 B50,2013-01-10 06:45:00,
2013-01-10 00:50:00,51.0,50.5,30.01,West,259,0.0,1.0,98,0.00,,,0.00,LWC V2.11 B50,2013-01-10 06:50:00,
2013-01-10 00:55:00,51.2,50.7,30.01,West,259,0.0,2.0,98,0.00,,,0.00,LWC V2.11 B50,2013-01-10 06:55:00,
2013-01-10 01:00:00,51.2,50.7,30.01,West,259,0.0,0.0,98,0.00,,,0.00,LWC V2.11 B50,2013-01-10 07:00:00,
2013-01-10 01:05:00,51.0,50.5,30.01,West,259,0.0,1.0,98,0.00,,,0.00,LWC V2.11 B50,2013-01-10 07:05:00,
2013-01-10 01:10:00,50.9,50.4,30.01,West,259,0.0,1.0,98,0.00,,,0.00,LWC V2.11 B50,2013-01-10 07:10:00,
2013-01-10 01:15:00,50.9,50.4,30.01,WSW,257,1.0,1.0,98,0.00,,,0.00,LWC V2.11 B50,2013-01-10 07:15:00,
2013-01-10 01:20:00,51.0,50.5,30.02,WSW,252,0.0,1.0,98,0.00,,,0.00,LWC V2.11 B50,2013-01-10 07:20:00,
2013-01-10 01:25:00,51.2,50.7,30.02,SW,219,0.0,0.0,98,0.00,,,0.00,LWC V2.11 B50,2013-01-10 07:25:00,
2013-01-10 01:30:00,51.3,50.8,30.02,SSW,196,0.0,2.0,98,0.00,,,0.00,LWC V2.11 B50,2013-01-10 07:30:00,
2013-01-10 01:35:00,51.4,50.9,30.02,SW,221,0.0,2.0,98,0.00,,,0.00,LWC V2.11 B50,2013-01-10 07:35:00,
2013-01-10 01:40:00,51.4,50.9,30.02,SW,225,2.0,2.0,98,0.00,,,0.00,LWC V2.11 B50,2013-01-10 07:40:00,
2013-01-10 01:45:00,51.3,50.8,30.02,SSW,213,1.0,2.0,98,0.00,,,0.00,LWC V2.11 B50,2013-01-10 07:45:00,
2013-01-10 01:50:00,51.3,50.8,30.02,South,180,0.0,4.0,98,0.00,,,0.00,LWC V2.11 B50,2013-01-10 07:50:00,
2013-01-10 01:55:00,51.2,50.7,30.02,South,188,2.0,4.0,98,0.00,,,0.00,LWC V2.11 B50,2013-01-10 07:55:00,
2013-01-10 02:00:00,51.1,50.6,30.02,SSW,198,1.0,3.0,98,0.00,,,0.00,LWC V2.11 B50,2013-01-10 08:00:00,
2013-01-10 02:05:00,51.1,50.6,30.02,SSW,201,2.0,3.0,98,0.00,,,0.00,LWC V2.11 B50,2013-01-10 08:05:00,
2013-01-10 02:10:00,51.0,50.5,30.02,South,188,1.0,2.0,98,0.00,,,0.00,LWC V2.11 B50,2013-01-10 08:10:00,
2013-01-10 02:15:00,51.0,50.5,30.02,WSW,257,0.0,2.0,98,0.00,,,0.00,LWC V2.11 B50,2013-01-10 08:15:00,
2013-01-10 02:20:00,51.0,50.5,30.02,SSW,196,3.0,7.0,98,0.00,,,0.00,LWC V2.11 B50,2013-01-10 08:20:00,
2013-01-10 02:25:00,51.1,50.6,30.02,SSW,207,0.0,2.0,98,0.00,,,0.00,LWC V2.11 B50,2013-01-10 08:25:00,
2013-01-10 02:30:00,51.2,50.7,30.02,West,260,0.0,3.0,98,0.00,,,0.00,LWC V2.11 B50,2013-01-10 08:30:00,
2013-01-10 02:35:00,51.3,51.0,30.03,SSW,198,4.0,4.0,99,0.00,,,0.00,LWC V2.11 B50,2013-01-10 08:35:00,
2013-01-10 02:40:00,51.4,51.1,30.03,WSW,252,2.0,4.0,99,0.00,,,0.00,LWC V2.11 B50,2013-01-10 08:40:00,
2013-01-10 02:45:00,51.4,51.1,30.03,SSW,194,1.0,3.0,99,0.00,,,0.00,LWC V2.11 B50,2013-01-10 08:45:00,
2013-01-10 02:50:00,51.5,51.2,30.03,SSE,165,1.0,5.0,99,0.00,,,0.00,LWC V2.11 B50,2013-01-10 08:50:00,
2013-01-10 02:55:00,51.5,51.2,30.03,South,185,0.0,2.0,99,0.00,,,0.00,LWC V2.11 B50,2013-01-10 08:55:00,
2013-01-10 03:01:00,51.5,51.2,30.03,SW,229,2.0,2.0,99,0.00,,,0.00,LWC V2.11 B50,2013-01-10 09:01:00,
2013-01-10 03:06:00,51.5,51.2,30.03,West,273,1.0,4.0,99,0.00,,,0.00,LWC V2.11 B50,2013-01-10 09:06:00,
2013-01-10 03:11:00,51.5,51.2,30.03,South,184,1.0,4.0,99,0.00,,,0.00,LWC V2.11 B50,2013-01-10 09:11:00,
2013-01-10 03:16:00,51.5,51.2,30.03,SSE,163,1.0,4.0,99,0.00,,,0.00,LWC V2.11 B50,2013-01-10 09:16:00,
2013-01-10 03:21:00,51.4,51.1,30.03,SSE,163,1.0,2.0,99,0.00,,,0.00,LWC V2.11 B50,2013-01-10 09:21:00,
2013-01-10 03:26:00,51.4,51.1,30.03,South,173,2.0,2.0,99,0.00,,,0.00,LWC V2.11 B50,2013-01-10 09:26:00,
2013-01-10 03:31:00,51.4,51.1,30.03,West,273,1.0,2.0,99,0.00,,,0.00,LWC V2.11 B50,2013-01-10 09:31:00,
2013-01-10 03:36:00,51.2,50.7,30.03,SSW,196,0.0,3.0,98,0.00,,,0.00,LWC V2.11 B50,2013-01-10 09:36:00,
2013-01-10 03:41:00,51.0,50.5,30.03,SW,221,1.0,2.0,98,0.00,,,0.00,LWC V2.11 B50,2013-01-10 09:41:00,
2013-01-10 03:46:00,51.0,50.7,30.03,South,183,0.0,2.0,99,0.00,,,0.00,LWC V2.11 B50,2013-01-10 09:46:00,
2013-01-10 03:51:00,50.9,50.6,30.02,SSW,200,2.0,3.0,99,0.00,,,0.00,LWC V2.11 B50,2013-01-10 09:51:00,
2013-01-10 03:56:00,50.9,50.6,30.03,SSW,211,0.0,3.0,99,0.00,,,0.00,LWC V2.11 B50,2013-01-10 09:56:00,
2013-01-10 04:01:00,51.0,50.7,30.03,SSW,200,2.0,2.0,99,0.00,,,0.00,LWC V2.11 B50,2013-01-10 10:01:00,
2013-01-10 04:06:00,50.9,50.6,30.03,SW,214,0.0,2.0,99,0.00,,,0.00,LWC V2.11 B50,2013-01-10 10:06:00,
2013-01-10 04:11:00,50.9,50.6,30.03,South,181,0.0,1.0,99,0.00,,,0.00,LWC V2.11 B50,2013-01-10 10:11:00,
2013-01-10 04:16:00,50.8,50.5,30.03,SSW,201,1.0,3.0,99,0.00,,,0.00,LWC V2.11 B50,2013-01-10 10:16:00,
2013-01-10 04:21:00,50.6,50.1,30.03,SW,215,3.0,3.0,98,0.00,,,0.00,LWC V2.11 B50,2013-01-10 10:21:00,
2013-01-10 04:26:00,50.5,50.0,30.03,SW,216,0.0,3.0,98,0.00,,,0.00,LWC V2.11 B50,2013-01-10 10:26:00,
2013-01-10 04:31:00,50.4,49.9,30.02,SSW,200,2.0,4.0,98,0.00,,,0.00,LWC V2.11 B50,2013-01-10 10:31:00,
2013-01-10 04:36:00,50.4,50.1,30.03,South,187,1.0,2.0,99,0.00,,,0.00,LWC V2.11 B50,2013-01-10 10:36:00,
2013-01-10 04:41:00,50.4,50.1,30.02,WSW,250,1.0,2.0,99,0.00,,,0.00,LWC V2.11 B50,2013-01-10 10:41:00,
2013-01-10 04:46:00,50.4,50.1,30.02,SW,229,1.0,5.0,99,0.00,,,0.00,LWC V2.11 B50,2013-01-10 10:46:00,
2013-01-10 04:51:00,50.3,50.0,30.02,SSW,198,2.0,4.0,99,0.00,,,0.00,LWC V2.11 B50,2013-01-10 10:51:00,
2013-01-10 04:56:00,50.1,49.8,30.02,West,272,1.0,4.0,99,0.00,,,0.00,LWC V2.11 B50,2013-01-10 10:56:00,
2013-01-10 05:01:00,50.0,49.5,30.02,South,189,2.0,6.0,98,0.00,,,0.00,LWC V2.11 B50,2013-01-10 11:01:00,
2013-01-10 05:06:00,50.0,49.5,30.02,SSW,207,2.0,4.0,98,0.00,,,0.00,LWC V2.11 B50,2013-01-10 11:06:00,
2013-01-10 05:11:00,49.9,49.4,30.02,SW,224,2.0,3.0,98,0.00,,,0.00,LWC V2.11 B50,2013-01-10 11:11:00,
2013-01-10 05:16:00,49.9,49.6,30.02,SW,223,1.0,2.0,99,0.00,,,0.00,LWC V2.11 B50,2013-01-10 11:16:00,
2013-01-10 05:21:00,49.8,49.5,30.02,South,187,0.0,4.0,99,0.00,,,0.00,LWC V2.11 B50,2013-01-10 11:21:00,
2013-01-10 05:27:00,49.7,49.4,30.02,SW,227,1.0,3.0,99,0.00,,,0.00,LWC V2.11 B50,2013-01-10 11:27:00,
2013-01-10 05:32:00,49.7,49.4,30.02,WSW,255,0.0,3.0,99,0.00,,,0.00,LWC V2.11 B50,2013-01-10 11:32:00,
2013-01-10 05:37:00,49.6,49.3,30.02,WSW,252,0.0,2.0,99,0.00,,,0.00,LWC V2.11 B50,2013-01-10 11:37:00,
2013-01-10 05:42:00,49.6,49.3,30.01,SSE,163,0.0,1.0,99,0.00,,,0.00,LWC V2.11 B50,2013-01-10 11:42:00,
2013-01-10 05:47:00,49.5,49.2,30.01,SSE,163,0.0,0.0,99,0.00,,,0.00,LWC V2.11 B50,2013-01-10 11:47:00,
2013-01-10 05:52:00,49.4,48.9,30.01,SSE,163,2.0,2.0,98,0.00,,,0.00,LWC V2.11 B50,2013-01-10 11:52:00,
2013-01-10 05:57:00,49.2,48.7,30.01,SSE,163,1.0,1.0,98,0.00,,,0.00,LWC V2.11 B50,2013-01-10 11:57:00,
2013-01-10 06:02:00,49.1,48.6,30.00,SSE,167,0.0,1.0,98,0.00,,,0.00,LWC V2.11 B50,2013-01-10 12:02:00,
2013-01-10 06:07:00,48.9,48.4,30.00,SSE,167,0.0,0.0,98,0.00,,,0.00,LWC V2.11 B50,2013-01-10 12:07:00,
2013-01-10 06:12:00,48.8,48.3,30.01,South,180,2.0,2.0,98,0.00,,,0.00,LWC V2.11 B50,2013-01-10 12:12:00,
2013-01-10 06:17:00,48.7,48.2,30.01,SSW,204,0.0,1.0,98,0.00,,,0.00,LWC V2.11 B50,2013-01-10 12:17:00,
2013-01-10 06:22:00,48.5,48.0,30.02,SSW,204,0.0,1.0,98,0.00,,,0.00,LWC V2.11 B50,2013-01-10 12:22:00,
2013-01-10 06:27:00,48.4,47.9,30.02,SSW,203,0.0,2.0,98,0.00,,,0.00,LWC V2.11 B50,2013-01-10 12:27:00,
2013-01-10 06:32:00,48.3,47.8,30.02,SSW,203,0.0,1.0,98,0.00,,,0.00,LWC V2.11 B50,2013-01-10 12:32:00,
2013-01-10 06:37:00,48.2,47.7,30.02,SSW,203,0.0,0.0,98,0.00,,,0.00,LWC V2.11 B50,2013-01-10 12:37:00,
2013-01-10 06:42:00,48.1,47.6,30.02,SSW,203,0.0,0.0,98,0.00,,,0.00,LWC V2.11 B50,2013-01-10 12:42:00,
2013-01-10 06:47:00,47.9,47.4,30.02,SSW,203,0.0,0.0,98,0.00,,,0.00,LWC V2.11 B50,2013-01-10 12:47:00,
2013-01-10 06:52:00,47.8,47.3,30.02,SSW,203,0.0,0.0,98,0.00,,,0.00,LWC V2.11 B50,2013-01-10 12:52:00,
2013-01-10 06:57:00,47.6,47.1,30.02,SSW,203,0.0,1.0,98,0.00,,,0.00,LWC V2.11 B50,2013-01-10 12:57:00,
2013-01-10 07:02:00,47.5,47.0,30.02,SSW,203,1.0,1.0,98,0.00,,,0.00,LWC V2.11 B50,2013-01-10 13:02:00,
2013-01-10 07:07:00,47.3,46.8,30.02,SSW,203,0.0,0.0,98,0.00,,,0.00,LWC V2.11 B50,2013-01-10 13:07:00,
2013-01-10 07:12:00,47.1,46.6,30.02,SSW,203,0.0,0.0,98,0.00,,,0.00,LWC V2.11 B50,2013-01-10 13:12:00,
2013-01-10 07:17:00,46.9,46.4,30.02,SSW,203,0.0,0.0,98,0.00,,,0.00,LWC V2.11 B50,2013-01-10 13:17:00,
2013-01-10 07:22:00,46.8,46.3,30.03,SSW,203,0.0,0.0,98,0.00,,,0.00,LWC V2.11 B50,2013-01-10 13:22:00,
2013-01-10 07:27:00,46.7,46.2,30.03,SSW,203,0.0,0.0,98,0.00,,,0.00,LWC V2.11 B50,2013-01-10 13:27:00,
2013-01-10 07:32:00,46.6,46.1,30.03,SSW,203,0.0,1.0,98,0.00,,,0.00,LWC V2.11 B50,2013-01-10 13:32:00,
2013-01-10 07:37:00,46.5,46.0,30.04,SSW,203,0.0,0.0,98,0.00,,,0.00,LWC V2.11 B50,2013-01-10 13:37:00,
2013-01-10 07:42:00,46.3,45.8,30.03,SSW,203,0.0,0.0,98,0.00,,,0.00,LWC V2.11 B50,2013-01-10 13:42:00,
2013-01-10 07:47:00,46.2,45.7,30.03,SSW,203,0.0,0.0,98,0.00,,,0.00,LWC V2.11 B50,2013-01-10 13:47:00,
2013-01-10 07:52:00,46.1,45.6,30.04,SSW,203,0.0,0.0,98,0.00,,,0.00,LWC V2.11 B50,2013-01-10 13:52:00,
2013-01-10 07:58:00,46.1,45.6,30.03,SSW,203,0.0,0.0,98,0.00,,,0.00,LWC V2.11 B50,2013-01-10 13:58:00,
2013-01-10 08:03:00,46.1,45.6,30.03,West,263,3.0,3.0,98,0.00,,,0.00,LWC V2.11 B50,2013-01-10 14:03:00,
2013-01-10 08:08:00,46.2,45.7,30.04,WNW,292,0.0,4.0,98,0.00,,,0.00,LWC V2.11 B50,2013-01-10 14:08:00,
2013-01-10 08:13:00,46.2,45.7,30.04,WNW,298,0.0,2.0,98,0.00,,,0.00,LWC V2.11 B50,2013-01-10 14:13:00,
2013-01-10 08:18:00,46.3,45.8,30.04,West,280,4.0,4.0,98,0.00,,,0.00,LWC V2.11 B50,2013-01-10 14:18:00,
2013-01-10 08:23:00,46.4,45.9,30.04,West,280,0.0,5.0,98,0.00,,,0.00,LWC V2.11 B50,2013-01-10 14:23:00,
2013-01-10 08:28:00,46.5,46.0,30.03,West,271,1.0,4.0,98,0.00,,,0.00,LWC V2.11 B50,2013-01-10 14:28:00,
2013-01-10 08:33:00,46.6,45.8,30.03,WSW,250,7.0,7.0,97,0.00,,,0.00,LWC V2.11 B50,2013-01-10 14:33:00,
2013-01-10 08:38:00,46.9,45.8,30.03,West,267,1.0,7.0,96,0.00,,,0.00,LWC V2.11 B50,2013-01-10 14:38:00,
2013-01-10 08:43:00,47.3,45.9,30.02,NW,304,1.0,10.0,95,0.00,,,0.00,LWC V2.11 B50,2013-01-10 14:43:00,
2013-01-10 08:48:00,47.8,45.9,30.03,WNW,292,2.0,8.0,93,0.00,,,0.00,LWC V2.11 B50,2013-01-10 14:48:00,
2013-01-10 08:53:00,48.4,45.9,30.02,West,264,3.0,9.0,91,0.00,,,0.00,LWC V2.11 B50,2013-01-10 14:53:00,
2013-01-10 08:58:00,48.9,45.8,30.02,WNW,294,5.0,11.0,89,0.00,,,0.00,LWC V2.11 B50,2013-01-10 14:58:00,
2013-01-10 09:03:00,49.5,45.8,30.02,WSW,247,5.0,13.0,87,0.00,,,0.00,LWC V2.11 B50,2013-01-10 15:03:00,
2013-01-10 09:08:00,50.2,45.6,30.01,SW,215,5.0,13.0,84,0.00,,,0.00,LWC V2.11 B50,2013-01-10 15:08:00,
2013-01-10 09:13:00,50.7,46.0,30.01,West,261,6.0,7.0,84,0.00,,,0.00,LWC V2.11 B50,2013-01-10 15:13:00,
2013-01-10 09:18:00,51.1,45.5,30.01,SW,227,0.0,11.0,81,0.00,,,0.00,LWC V2.11 B50,2013-01-10 15:18:00,
2013-01-10 09:23:00,51.5,45.5,30.01,West,263,2.0,10.0,80,0.00,,,0.00,LWC V2.11 B50,2013-01-10 15:23:00,
2013-01-10 09:28:00,52.0,46.0,30.01,SSW,194,7.0,7.0,80,0.00,,,0.00,LWC V2.11 B50,2013-01-10 15:28:00,
2013-01-10 09:33:00,52.5,45.2,30.01,WNW,285,13.0,17.0,76,0.00,,,0.00,LWC V2.11 B50,2013-01-10 15:33:00,
2013-01-10 09:38:00,52.8,44.7,30.01,West,281,1.0,8.0,74,0.00,,,0.00,LWC V2.11 B50,2013-01-10 15:38:00,
2013-01-10 09:43:00,53.1,45.4,30.02,SW,233,4.0,8.0,75,0.00,,,0.00,LWC V2.11 B50,2013-01-10 15:43:00,
2013-01-10 09:48:00,53.3,45.6,30.02,WNW,301,8.0,8.0,75,0.00,,,0.00,LWC V2.11 B50,2013-01-10 15:48:00,
2013-01-10 09:53:00,53.7,45.6,30.02,WSW,257,0.0,11.0,74,0.00,,,0.00,LWC V2.11 B50,2013-01-10 15:53:00,
2013-01-10 09:58:00,54.2,46.1,30.02,NW,304,1.0,5.0,74,0.00,,,0.00,LWC V2.11 B50,2013-01-10 15:58:00,
2013-01-10 10:03:00,54.8,46.3,30.02,West,263,5.0,14.0,73,0.00,,,0.00,LWC V2.11 B50,2013-01-10 16:03:00,
2013-01-10 10:08:00,55.4,45.8,30.02,SW,226,4.0,10.0,70,0.00,,,0.00,LWC V2.11 B50,2013-01-10 16:08:00,
2013-01-10 10:13:00,56.0,46.0,30.02,SW,221,4.0,12.0,69,0.00,,,0.00,LWC V2.11 B50,2013-01-10 16:13:00,
2013-01-10 10:18:00,56.3,45.5,30.02,SSW,203,3.0,10.0,67,0.00,,,0.00,LWC V2.11 B50,2013-01-10 16:18:00,
2013-01-10 10:23:00,56.6,45.8,30.01,SSW,211,7.0,21.0,67,0.00,,,0.00,LWC V2.11 B50,2013-01-10 16:23:00,
2013-01-10 10:29:00,56.9,45.7,30.01,SW,235,4.0,7.0,66,0.00,,,0.00,LWC V2.11 B50,2013-01-10 16:29:00,
2013-01-10 10:34:00,57.1,45.4,30.01,SSW,213,7.0,17.0,65,0.00,,,0.00,LWC V2.11 B50,2013-01-10 16:34:00,
2013-01-10 10:39:00,57.3,46.0,30.02,WNW,289,5.0,12.0,66,0.00,,,0.00,LWC V2.11 B50,2013-01-10 16:39:00,
2013-01-10 10:44:00,57.7,45.6,30.03,NNE,13,4.0,20.0,64,0.00,,,0.00,LWC V2.11 B50,2013-01-10 16:44:00,
2013-01-10 10:49:00,57.8,45.7,30.03,SW,223,3.0,13.0,64,0.00,,,0.00,LWC V2.11 B50,2013-01-10 16:49:00,
2013-01-10 10:54:00,58.0,45.5,30.03,West,261,4.0,19.0,63,0.00,,,0.00,LWC V2.11 B50,2013-01-10 16:54:00,
2013-01-10 10:59:00,58.2,45.2,30.03,SW,230,11.0,16.0,62,0.00,,,0.00,LWC V2.11 B50,2013-01-10 16:59:00,
2013-01-10 11:04:00,58.6,45.6,30.04,WNW,289,12.0,13.0,62,0.00,,,0.00,LWC V2.11 B50,2013-01-10 17:04:00,
2013-01-10 11:09:00,58.8,45.8,30.04,NW,308,5.0,10.0,62,0.00,,,0.00,LWC V2.11 B50,2013-01-10 17:09:00,
2013-01-10 11:14:00,59.2,45.8,30.04,SW,224,6.0,8.0,61,0.00,,,0.00,LWC V2.11 B50,2013-01-10 17:14:00,
2013-01-10 11:19:00,59.3,45.8,30.05,West,271,4.0,19.0,61,0.00,,,0.00,LWC V2.11 B50,2013-01-10 17:19:00,
2013-01-10 11:24:00,59.4,45.5,30.04,West,281,15.0,15.0,60,0.00,,,0.00,LWC V2.11 B50,2013-01-10 17:24:00,
2013-01-10 11:29:00,59.6,46.1,30.04,SW,225,4.0,11.0,61,0.00,,,0.00,LWC V2.11 B50,2013-01-10 17:29:00,
2013-01-10 11:34:00,60.0,46.1,30.04,WNW,286,5.0,9.0,60,0.00,,,0.00,LWC V2.11 B50,2013-01-10 17:34:00,
2013-01-10 11:39:00,60.0,45.2,30.04,WNW,294,11.0,13.0,58,0.00,,,0.00,LWC V2.11 B50,2013-01-10 17:39:00,
2013-01-10 11:44:00,60.1,45.3,30.03,NW,317,2.0,13.0,58,0.00,,,0.00,LWC V2.11 B50,2013-01-10 17:44:00,
2013-01-10 11:49:00,60.4,45.6,30.03,WNW,284,11.0,11.0,58,0.00,,,0.00,LWC V2.11 B50,2013-01-10 17:49:00,
2013-01-10 11:54:00,60.5,45.6,30.02,West,275,7.0,7.0,58,0.00,,,0.00,LWC V2.11 B50,2013-01-10 17:54:00,
2013-01-10 11:59:00,60.8,45.0,30.02,WNW,282,2.0,15.0,56,0.00,,,0.00,LWC V2.11 B50,2013-01-10 17:59:00,
2013-01-10 12:04:00,61.0,45.7,30.02,SW,232,2.0,7.0,57,0.00,,,0.00,LWC V2.11 B50,2013-01-10 18:04:00,
2013-01-10 12:09:00,61.2,45.4,30.02,WSW,242,2.0,7.0,56,0.00,,,0.00,LWC V2.11 B50,2013-01-10 18:09:00,
2013-01-10 12:14:00,61.4,45.6,30.02,WSW,248,4.0,8.0,56,0.00,,,0.00,LWC V2.11 B50,2013-01-10 18:14:00,
2013-01-10 12:19:00,61.4,46.0,30.02,West,263,4.0,4.0,57,0.00,,,0.00,LWC V2.11 B50,2013-01-10 18:19:00,
2013-01-10 12:24:00,61.8,45.9,30.01,SW,217,4.0,5.0,56,0.00,,,0.00,LWC V2.11 B50,2013-01-10 18:24:00,
2013-01-10 12:29:00,62.0,45.6,30.02,SW,231,1.0,6.0,55,0.00,,,0.00,LWC V2.11 B50,2013-01-10 18:29:00,
2013-01-10 12:34:00,61.8,45.0,30.01,NW,314,5.0,8.0,54,0.00,,,0.00,LWC V2.11 B50,2013-01-10 18:34:00,
2013-01-10 12:39:00,61.8,45.5,30.01,West,279,4.0,7.0,55,0.00,,,0.00,LWC V2.11 B50,2013-01-10 18:39:00,
2013-01-10 12:44:00,62.0,45.6,30.01,West,270,4.0,7.0,55,0.00,,,0.00,LWC V2.11 B50,2013-01-10 18:44:00,
2013-01-10 12:49:00,62.2,44.9,30.01,NW,311,5.0,8.0,53,0.00,,,0.00,LWC V2.11 B50,2013-01-10 18:49:00,
2013-01-10 12:54:00,62.4,46.0,30.01,WSW,257,2.0,2.0,55,0.00,,,0.00,LWC V2.11 B50,2013-01-10 18:54:00,
2013-01-10 13:00:00,63.0,46.6,30.01,WNW,283,1.0,8.0,55,0.00,,,0.00,LWC V2.11 B50,2013-01-10 19:00:00,
2013-01-10 13:05:00,63.1,46.2,30.01,West,277,2.0,5.0,54,0.00,,,0.00,LWC V2.11 B50,2013-01-10 19:05:00,
2013-01-10 13:10:00,63.1,45.2,30.01,West,280,1.0,8.0,52,0.00,,,0.00,LWC V2.11 B50,2013-01-10 19:10:00,
2013-01-10 13:15:00,63.1,46.2,30.01,SW,233,2.0,4.0,54,0.00,,,0.00,LWC V2.11 B50,2013-01-10 19:15:00,
2013-01-10 13:20:00,63.2,46.3,30.00,West,274,4.0,6.0,54,0.00,,,0.00,LWC V2.11 B50,2013-01-10 19:20:00,
2013-01-10 13:25:00,63.5,46.1,30.00,WSW,252,3.0,3.0,53,0.00,,,0.00,LWC V2.11 B50,2013-01-10 19:25:00,
2013-01-10 13:30:00,63.8,45.8,30.00,NW,317,2.0,7.0,52,0.00,,,0.00,LWC V2.11 B50,2013-01-10 19:30:00,
2013-01-10 13:35:00,63.5,45.0,29.99,WNW,292,1.0,2.0,51,0.00,,,0.00,LWC V2.11 B50,2013-01-10 19:35:00,
2013-01-10 13:40:00,63.8,46.8,29.99,WSW,240,1.0,2.0,54,0.00,,,0.00,LWC V2.11 B50,2013-01-10 19:40:00,
2013-01-10 13:45:00,64.1,46.6,29.99,SSW,211,0.0,3.0,53,0.00,,,0.00,LWC V2.11 B50,2013-01-10 19:45:00,
2013-01-10 13:50:00,64.2,46.2,29.99,SW,219,3.0,3.0,52,0.00,,,0.00,LWC V2.11 B50,2013-01-10 19:50:00,
2013-01-10 13:55:00,64.4,46.9,29.99,SW,227,0.0,3.0,53,0.00,,,0.00,LWC V2.11 B50,2013-01-10 19:55:00,
2013-01-10 14:00:00,64.6,46.6,29.98,South,187,3.0,5.0,52,0.00,,,0.00,LWC V2.11 B50,2013-01-10 20:00:00,
2013-01-10 14:05:00,64.6,46.1,29.98,West,271,4.0,6.0,51,0.00,,,0.00,LWC V2.11 B50,2013-01-10 20:05:00,
2013-01-10 14:10:00,64.4,45.3,29.98,West,277,1.0,8.0,50,0.00,,,0.00,LWC V2.11 B50,2013-01-10 20:10:00,
2013-01-10 14:15:00,64.5,46.5,29.98,SSW,201,1.0,4.0,52,0.00,,,0.00,LWC V2.11 B50,2013-01-10 20:15:00,
2013-01-10 14:20:00,65.0,46.9,29.98,SW,228,4.0,4.0,52,0.00,,,0.00,LWC V2.11 B50,2013-01-10 20:20:00,
2013-01-10 14:25:00,65.1,47.0,29.98,SSW,209,0.0,5.0,52,0.00,,,0.00,LWC V2.11 B50,2013-01-10 20:25:00,
2013-01-10 14:30:00,65.3,47.2,29.98,SW,230,0.0,3.0,52,0.00,,,0.00,LWC V2.11 B50,2013-01-10 20:30:00,
2013-01-10 14:35:00,65.3,46.2,29.98,NW,305,0.0,6.0,50,0.00,,,0.00,LWC V2.11 B50,2013-01-10 20:35:00,
2013-01-10 14:40:00,65.2,46.1,29.98,South,173,5.0,6.0,50,0.00,,,0.00,LWC V2.11 B50,2013-01-10 20:40:00,
2013-01-10 14:45:00,65.5,47.4,29.97,South,175,0.0,6.0,52,0.00,,,0.00,LWC V2.11 B50,2013-01-10 20:45:00,
2013-01-10 14:50:00,65.6,47.0,29.97,SW,223,2.0,4.0,51,0.00,,,0.00,LWC V2.11 B50,2013-01-10 20:50:00,
2013-01-10 14:55:00,65.4,46.3,29.97,South,180,3.0,7.0,50,0.00,,,0.00,LWC V2.11 B50,2013-01-10 20:55:00,
2013-01-10 15:00:00,65.2,46.6,29.97,SSW,194,3.0,10.0,51,0.00,,,0.00,LWC V2.11 B50,2013-01-10 21:00:00,
2013-01-10 15:05:00,65.1,46.5,29.97,West,281,2.0,3.0,51,0.00,,,0.00,LWC V2.11 B50,2013-01-10 21:05:00,
2013-01-10 15:10:00,65.2,47.1,29.97,SSE,153,7.0,7.0,52,0.00,,,0.00,LWC V2.11 B50,2013-01-10 21:10:00,
2013-01-10 15:15:00,65.3,47.2,29.97,South,171,2.0,5.0,52,0.00,,,0.00,LWC V2.11 B50,2013-01-10 21:15:00,
2013-01-10 15:20:00,65.3,47.2,29.97,SSW,200,0.0,6.0,52,0.00,,,0.00,LWC V2.11 B50,2013-01-10 21:20:00,
2013-01-10 15:25:00,65.2,47.1,29.97,SSW,204,3.0,3.0,52,0.00,,,0.00,LWC V2.11 B50,2013-01-10 21:25:00,
2013-01-10 15:31:00,65.2,47.1,29.97,SSW,193,1.0,2.0,52,0.00,,,0.00,LWC V2.11 B50,2013-01-10 21:31:00,
2013-01-10 15:36:00,65.0,46.4,29.97,South,175,2.0,5.0,51,0.00,,,0.00,LWC V2.11 B50,2013-01-10 21:36:00,
2013-01-10 15:41:00,64.8,46.8,29.98,SSW,193,0.0,3.0,52,0.00,,,0.00,LWC V2.11 B50,2013-01-10 21:41:00,
2013-01-10 15:46:00,64.8,46.8,29.98,South,190,1.0,4.0,52,0.00,,,0.00,LWC V2.11 B50,2013-01-10 21:46:00,
2013-01-10 15:51:00,64.8,47.3,29.98,South,182,1.0,3.0,53,0.00,,,0.00,LWC V2.11 B50,2013-01-10 21:51:00,
2013-01-10 15:57:00,64.9,47.4,29.98,SW,219,3.0,3.0,53,0.00,,,0.00,LWC V2.11 B50,2013-01-10 21:57:00,
2013-01-10 16:02:00,65.0,46.9,29.98,NW,308,4.0,8.0,52,0.00,,,0.00,LWC V2.11 B50,2013-01-10 22:02:00,
2013-01-10 16:07:00,64.8,46.8,29.98,West,261,1.0,6.0,52,0.00,,,0.00,LWC V2.11 B50,2013-01-10 22:07:00,
2013-01-10 16:12:00,64.7,46.7,29.98,SSW,205,1.0,1.0,52,0.00,,,0.00,LWC V2.11 B50,2013-01-10 22:12:00,
2013-01-10 16:17:00,64.7,46.7,29.98,WSW,251,1.0,3.0,52,0.00,,,0.00,LWC V2.11 B50,2013-01-10 22:17:00,
2013-01-10 16:22:00,64.8,46.8,29.98,SSW,196,2.0,4.0,52,0.00,,,0.00,LWC V2.11 B50,2013-01-10 22:22:00,
2013-01-10 16:27:00,64.8,46.8,29.98,WSW,257,1.0,3.0,52,0.00,,,0.00,LWC V2.11 B50,2013-01-10 22:27:00,
2013-01-10 16:32:00,64.7,46.1,29.98,WNW,288,2.0,5.0,51,0.00,,,0.00,LWC V2.11 B50,2013-01-10 22:32:00,
2013-01-10 16:37:00,64.7,46.7,29.98,West,265,0.0,2.0,52,0.00,,,0.00,LWC V2.11 B50,2013-01-10 22:37:00,
2013-01-10 16:42:00,64.6,47.6,29.98,SW,227,2.0,2.0,54,0.00,,,0.00,LWC V2.11 B50,2013-01-10 22:42:00,
2013-01-10 16:48:00,64.5,47.5,29.98,SW,215,0.0,1.0,54,0.00,,,0.00,LWC V2.11 B50,2013-01-10 22:48:00,
2013-01-10 16:53:00,64.3,46.3,29.98,SW,215,0.0,2.0,52,0.00,,,0.00,LWC V2.11 B50,2013-01-10 22:53:00,
2013-01-10 16:58:00,64.3,46.8,29.98,South,183,0.0,1.0,53,0.00,,,0.00,LWC V2.11 B50,2013-01-10 22:58:00,
2013-01-10 17:03:00,64.1,46.6,29.98,South,182,0.0,0.0,53,0.00,,,0.00,LWC V2.11 B50,2013-01-10 23:03:00,
2013-01-10 17:08:00,64.0,47.0,29.98,South,190,0.0,0.0,54,0.00,,,0.00,LWC V2.11 B50,2013-01-10 23:08:00,
2013-01-10 17:13:00,63.7,46.7,29.98,South,190,0.0,1.0,54,0.00,,,0.00,LWC V2.11 B50,2013-01-10 23:13:00,
2013-01-10 17:18:00,63.5,47.0,29.98,South,190,0.0,0.0,55,0.00,,,0.00,LWC V2.11 B50,2013-01-10 23:18:00,
2013-01-10 17:23:00,63.2,46.8,29.98,South,190,0.0,0.0,55,0.00,,,0.00,LWC V2.11 B50,2013-01-10 23:23:00,
2013-01-10 17:28:00,62.8,46.9,29.98,South,190,0.0,0.0,56,0.00,,,0.00,LWC V2.11 B50,2013-01-10 23:28:00,
2013-01-10 17:33:00,62.4,47.0,29.98,South,190,0.0,0.0,57,0.00,,,0.00,LWC V2.11 B50,2013-01-10 23:33:00,
2013-01-10 17:38:00,62.1,47.6,29.98,South,190,0.0,0.0,59,0.00,,,0.00,LWC V2.11 B50,2013-01-10 23:38:00,
2013-01-10 17:43:00,61.6,47.1,29.98,South,190,0.0,0.0,59,0.00,,,0.00,LWC V2.11 B50,2013-01-10 23:43:00,
2013-01-10 17:48:00,61.1,47.1,29.98,South,190,0.0,0.0,60,0.00,,,0.00,LWC V2.11 B50,2013-01-10 23:48:00,
2013-01-10 17:53:00,60.5,47.4,29.98,South,190,0.0,0.0,62,0.00,,,0.00,LWC V2.11 B50,2013-01-10 23:53:00,
2013-01-10 17:58:00,60.0,46.9,29.98,South,190,0.0,0.0,62,0.00,,,0.00,LWC V2.11 B50,2013-01-10 23:58:00,
2013-01-10 18:03:00,59.2,47.8,29.98,South,190,0.0,0.0,66,0.00,,,0.00,LWC V2.11 B50,2013-01-11 00:03:00,
2013-01-10 18:08:00,58.4,47.9,29.98,South,190,0.0,0.0,68,0.00,,,0.00,LWC V2.11 B50,2013-01-11 00:08:00,
2013-01-10 18:13:00,57.9,47.0,29.98,South,190,0.0,0.0,67,0.00,,,0.00,LWC V2.11 B50,2013-01-11 00:13:00,
2013-01-10 18:18:00,57.5,47.0,29.98,South,190,0.0,0.0,68,0.00,,,0.00,LWC V2.11 B50,2013-01-11 00:18:00,
2013-01-10 18:23:00,57.1,47.8,29.98,South,190,0.0,0.0,71,0.00,,,0.00,LWC V2.11 B50,2013-01-11 00:23:00,
2013-01-10 18:28:00,56.6,46.5,29.99,South,190,0.0,0.0,69,0.00,,,0.00,LWC V2.11 B50,2013-01-11 00:28:00,
2013-01-10 18:33:00,56.4,46.7,29.99,South,190,0.0,0.0,70,0.00,,,0.00,LWC V2.11 B50,2013-01-11 00:33:00,
2013-01-10 18:38:00,56.0,47.1,29.99,South,190,0.0,0.0,72,0.00,,,0.00,LWC V2.11 B50,2013-01-11 00:38:00,
2013-01-10 18:43:00,55.8,46.5,30.00,South,190,0.0,0.0,71,0.00,,,0.00,LWC V2.11 B50,2013-01-11 00:43:00,
2013-01-10 18:48:00,55.6,47.1,30.00,South,190,0.0,0.0,73,0.00,,,0.00,LWC V2.11 B50,2013-01-11 00:48:00,
2013-01-10 18:53:00,55.3,46.8,30.00,South,190,0.0,0.0,73,0.00,,,0.00,LWC V2.11 B50,2013-01-11 00:53:00,
2013-01-10 18:58:00,55.5,46.6,30.00,SSW,193,0.0,2.0,72,0.00,,,0.00,LWC V2.11 B50,2013-01-11 00:58:00,
2013-01-10 19:03:00,56.1,46.5,30.00,SSW,193,0.0,0.0,70,0.00,,,0.00,LWC V2.11 B50,2013-01-11 01:03:00,
2013-01-10 19:08:00,56.4,47.1,30.00,South,180,0.0,3.0,71,0.00,,,0.00,LWC V2.11 B50,2013-01-11 01:08:00,
2013-01-10 19:13:00,56.3,46.6,30.00,South,181,0.0,0.0,70,0.00,,,0.00,LWC V2.11 B50,2013-01-11 01:13:00,
2013-01-10 19:19:00,56.1,46.8,30.00,South,181,0.0,0.0,71,0.00,,,0.00,LWC V2.11 B50,2013-01-11 01:19:00,
2013-01-10 19:24:00,56.2,46.5,30.00,South,184,0.0,3.0,70,0.00,,,0.00,LWC V2.11 B50,2013-01-11 01:24:00,
2013-01-10 19:29:00,56.2,46.5,30.00,South,184,0.0,0.0,70,0.00,,,0.00,LWC V2.11 B50,2013-01-11 01:29:00,
2013-01-10 19:34:00,56.0,46.4,30.00,South,184,0.0,0.0,70,0.00,,,0.00,LWC V2.11 B50,2013-01-11 01:34:00,
2013-01-10 19:39:00,56.1,46.5,30.00,South,184,0.0,3.0,70,0.00,,,0.00,LWC V2.11 B50,2013-01-11 01:39:00,
2013-01-10 19:44:00,56.1,46.5,30.00,South,184,0.0,0.0,70,0.00,,,0.00,LWC V2.11 B50,2013-01-11 01:44:00,
2013-01-10 19:49:00,55.9,46.6,30.00,South,184,0.0,0.0,71,0.00,,,0.00,LWC V2.11 B50,2013-01-11 01:49:00,
2013-01-10 19:54:00,55.5,46.2,30.00,South,184,0.0,0.0,71,0.00,,,0.00,LWC V2.11 B50,2013-01-11 01:54:00,
2013-01-10 19:59:00,55.0,46.1,30.00,South,184,0.0,0.0,72,0.00,,,0.00,LWC V2.11 B50,2013-01-11 01:59:00,
2013-01-10 20:04:00,54.7,46.2,30.00,South,184,0.0,0.0,73,0.00,,,0.00,LWC V2.11 B50,2013-01-11 02:04:00,
2013-01-10 20:09:00,54.4,46.3,30.00,South,184,0.0,0.0,74,0.00,,,0.00,LWC V2.11 B50,2013-01-11 02:09:00,
2013-01-10 20:14:00,54.1,46.0,30.00,South,184,0.0,0.0,74,0.00,,,0.00,LWC V2.11 B50,2013-01-11 02:14:00,
2013-01-10 20:19:00,53.8,46.1,30.00,South,184,0.0,0.0,75,0.00,,,0.00,LWC V2.11 B50,2013-01-11 02:19:00,
2013-01-10 20:24:00,53.5,46.1,30.00,South,184,0.0,0.0,76,0.00,,,0.00,LWC V2.11 B50,2013-01-11 02:24:00,
2013-01-10 20:29:00,53.4,46.4,30.00,South,184,0.0,0.0,77,0.00,,,0.00,LWC V2.11 B50,2013-01-11 02:29:00,
2013-01-10 20:34:00,53.4,46.0,30.00,South,184,0.0,0.0,76,0.00,,,0.00,LWC V2.11 B50,2013-01-11 02:34:00,
2013-01-10 20:39:00,53.5,46.1,30.00,South,184,0.0,1.0,76,0.00,,,0.00,LWC V2.11 B50,2013-01-11 02:39:00,
2013-01-10 20:44:00,53.7,46.0,30.01,South,184,0.0,0.0,75,0.00,,,0.00,LWC V2.11 B50,2013-01-11 02:44:00,
2013-01-10 20:49:00,53.7,46.3,30.01,South,184,0.0,0.0,76,0.00,,,0.00,LWC V2.11 B50,2013-01-11 02:49:00,
2013-01-10 20:54:00,53.6,46.2,30.01,South,184,0.0,0.0,76,0.00,,,0.00,LWC V2.11 B50,2013-01-11 02:54:00,
2013-01-10 20:59:00,53.4,46.0,30.01,South,184,0.0,0.0,76,0.00,,,0.00,LWC V2.11 B50,2013-01-11 02:59:00,
2013-01-10 21:04:00,53.3,45.9,30.01,South,184,0.0,0.0,76,0.00,,,0.00,LWC V2.11 B50,2013-01-11 03:04:00,
2013-01-10 21:09:00,53.2,45.8,30.00,South,184,0.0,1.0,76,0.00,,,0.00,LWC V2.11 B50,2013-01-11 03:09:00,
2013-01-10 21:14:00,53.1,45.4,30.00,South,184,0.0,0.0,75,0.00,,,0.00,LWC V2.11 B50,2013-01-11 03:14:00,
2013-01-10 21:19:00,53.0,45.6,30.00,South,184,0.0,0.0,76,0.00,,,0.00,LWC V2.11 B50,2013-01-11 03:19:00,
2013-01-10 21:24:00,52.8,45.4,30.01,South,184,0.0,0.0,76,0.00,,,0.00,LWC V2.11 B50,2013-01-11 03:24:00,
2013-01-10 21:29:00,52.7,45.3,30.00,South,184,0.0,0.0,76,0.00,,,0.00,LWC V2.11 B50,2013-01-11 03:29:00,
2013-01-10 21:34:00,52.5,45.5,30.01,South,184,0.0,0.0,77,0.00,,,0.00,LWC V2.11 B50,2013-01-11 03:34:00,
2013-01-10 21:39:00,52.3,45.3,30.00,South,184,0.0,0.0,77,0.00,,,0.00,LWC V2.11 B50,2013-01-11 03:39:00,
2013-01-10 21:44:00,51.9,45.3,30.00,South,184,0.0,0.0,78,0.00,,,0.00,LWC V2.11 B50,2013-01-11 03:44:00,
2013-01-10 21:50:00,51.3,45.0,30.01,South,184,0.0,0.0,79,0.00,,,0.00,LWC V2.11 B50,2013-01-11 03:50:00,
2013-01-10 21:55:00,50.8,44.9,30.01,South,184,0.0,0.0,80,0.00,,,0.00,LWC V2.11 B50,2013-01-11 03:55:00,
2013-01-10 22:00:00,50.3,44.7,30.01,South,184,0.0,0.0,81,0.00,,,0.00,LWC V2.11 B50,2013-01-11 04:00:00,
2013-01-10 22:05:00,50.0,44.7,30.01,South,184,0.0,0.0,82,0.00,,,0.00,LWC V2.11 B50,2013-01-11 04:05:00,
2013-01-10 22:10:00,49.7,44.4,30.01,South,184,0.0,0.0,82,0.00,,,0.00,LWC V2.11 B50,2013-01-11 04:10:00,
2013-01-10 22:15:00,49.4,44.5,30.01,South,184,0.0,0.0,83,0.00,,,0.00,LWC V2.11 B50,2013-01-11 04:15:00,
2013-01-10 22:20:00,49.2,44.6,30.01,South,184,0.0,0.0,84,0.00,,,0.00,LWC V2.11 B50,2013-01-11 04:20:00,
2013-01-10 22:25:00,49.0,44.4,30.01,South,184,0.0,0.0,84,0.00,,,0.00,LWC V2.11 B50,2013-01-11 04:25:00,
2013-01-10 22:30:00,48.7,44.4,30.01,South,184,0.0,0.0,85,0.00,,,0.00,LWC V2.11 B50,2013-01-11 04:30:00,
2013-01-10 22:35:00,48.6,44.3,30.01,South,184,0.0,0.0,85,0.00,,,0.00,LWC V2.11 B50,2013-01-11 04:35:00,
2013-01-10 22:40:00,48.7,44.4,30.01,South,184,0.0,0.0,85,0.00,,,0.00,LWC V2.11 B50,2013-01-11 04:40:00,
2013-01-10 22:45:00,48.8,44.5,30.01,South,184,0.0,0.0,85,0.00,,,0.00,LWC V2.11 B50,2013-01-11 04:45:00,
2013-01-10 22:50:00,49.0,44.4,30.00,South,184,0.0,0.0,84,0.00,,,0.00,LWC V2.11 B50,2013-01-11 04:50:00,
2013-01-10 22:55:00,49.2,44.6,30.00,South,184,0.0,0.0,84,0.00,,,0.00,LWC V2.11 B50,2013-01-11 04:55:00,
2013-01-10 23:00:00,49.4,44.5,30.00,South,184,0.0,0.0,83,0.00,,,0.00,LWC V2.11 B50,2013-01-11 05:00:00,
2013-01-10 23:02:00,49.5,44.6,30.00,South,184,0.0,0.0,83,0.00,,,0.00,LWC V2.11 B50,2013-01-11 05:02:00,
2013-01-10 23:04:00,49.5,44.6,30.00,South,184,0.0,0.0,83,0.00,,,0.00,LWC V2.11 B50,2013-01-11 05:04:00,
2013-01-10 23:05:00,49.5,44.2,30.00,South,184,0.0,0.0,82,0.00,,,0.00,LWC V2.11 B50,2013-01-11 05:05:00,
2013-01-10 23:10:00,49.5,44.9,30.01,South,184,0.0,0.0,84,0.00,,,0.00,LWC V2.11 B50,2013-01-11 05:10:00,
2013-01-10 23:15:00,49.2,44.9,30.01,South,184,0.0,0.0,85,0.00,,,0.00,LWC V2.11 B50,2013-01-11 05:15:00,
2013-01-10 23:20:00,48.8,44.5,30.01,South,184,0.0,0.0,85,0.00,,,0.00,LWC V2.11 B50,2013-01-11 05:20:00,
2013-01-10 23:25:00,48.4,44.1,30.01,South,184,0.0,0.0,85,0.00,,,0.00,LWC V2.11 B50,2013-01-11 05:25:00,
2013-01-10 23:30:00,48.2,44.2,30.02,South,184,0.0,0.0,86,0.00,,,0.00,LWC V2.11 B50,2013-01-11 05:30:00,
2013-01-10 23:35:00,47.9,44.2,30.01,South,184,0.0,0.0,87,0.00,,,0.00,LWC V2.11 B50,2013-01-11 05:35:00,
2013-01-10 23:40:00,47.6,43.9,30.01,South,184,0.0,0.0,87,0.00,,,0.00,LWC V2.11 B50,2013-01-11 05:40:00,
2013-01-10 23:45:00,47.3,43.9,30.02,South,184,0.0,0.0,88,0.00,,,0.00,LWC V2.11 B50,2013-01-11 05:45:00,
2013-01-10 23:50:00,47.1,43.7,30.02,South,184,0.0,0.0,88,0.00,,,0.00,LWC V2.11 B50,2013-01-11 05:50:00,
2013-01-10 23:55:00,46.8,43.4,30.02,South,184,0.0,0.0,88,0.00,,,0.00,LWC V2.11 B50,2013-01-11 05:55:00,